createdAt,value
2019-03-22T00:00:33.293Z,26.17
2019-03-22T00:03:01.992Z,23.83
2019-03-22T00:05:31.794Z,24.77
2019-03-22T00:08:00.585Z,26.17
2019-03-22T00:10:29.304Z,25.65
2019-03-22T00:12:57.925Z,25.72
2019-03-22T00:15:26.662Z,25.72
2019-03-22T00:17:55.286Z,26.75
2019-03-22T00:20:24.062Z,25.77
2019-03-22T00:22:52.610Z,27.15
2019-03-22T00:25:20.830Z,26.05
2019-03-22T00:27:50.569Z,29.57
2019-03-22T00:30:19.075Z,35.80
2019-03-22T00:32:47.424Z,37.25
2019-03-22T00:35:16.190Z,42.93
2019-03-22T00:37:44.692Z,43.65
2019-03-22T00:40:14.768Z,46.37
2019-03-22T00:42:43.299Z,43.52
2019-03-22T00:45:11.647Z,42.15
2019-03-22T00:47:42.360Z,39.05
2019-03-22T00:50:11.542Z,35.83
2019-03-22T00:52:40.210Z,39.85
2019-03-22T00:55:09.410Z,37.10
2019-03-22T00:57:37.740Z,36.03
2019-03-22T01:00:07.794Z,33.92
2019-03-22T01:02:36.411Z,32.40
2019-03-22T01:05:07.281Z,35.58
2019-03-22T01:07:36.027Z,32.93
2019-03-22T01:10:06.026Z,34.78
2019-03-22T01:12:34.545Z,31.33
2019-03-22T01:15:03.855Z,31.42
2019-03-22T01:17:33.560Z,32.33
2019-03-22T01:20:02.659Z,30.50
2019-03-22T01:22:31.009Z,32.88
2019-03-22T01:24:59.242Z,33.48
2019-03-22T01:27:27.895Z,33.83
2019-03-22T01:29:56.553Z,33.78
2019-03-22T01:32:25.447Z,35.52
2019-03-22T01:34:55.164Z,35.55
2019-03-22T01:37:23.435Z,34.92
2019-03-22T01:39:52.093Z,34.30
2019-03-22T01:42:21.624Z,34.98
2019-03-22T01:44:49.938Z,34.55
2019-03-22T01:47:18.516Z,34.35
2019-03-22T01:49:46.746Z,31.80
2019-03-22T01:52:15.090Z,32.63
2019-03-22T01:54:43.810Z,34.03
2019-03-22T01:57:12.158Z,34.58
2019-03-22T01:59:40.375Z,34.83
2019-03-22T02:02:08.850Z,33.75
2019-03-22T02:04:38.725Z,31.35
2019-03-22T02:07:08.196Z,31.15
2019-03-22T02:09:36.854Z,31.33
2019-03-22T02:12:06.611Z,31.68
2019-03-22T02:14:36.332Z,31.40
2019-03-22T02:17:07.911Z,30.37
2019-03-22T02:19:37.243Z,30.35
2019-03-22T02:22:05.623Z,27.82
2019-03-22T02:24:34.219Z,28.25
2019-03-22T02:27:04.968Z,26.97
2019-03-22T02:29:33.577Z,26.77
2019-03-22T02:32:01.924Z,26.62
2019-03-22T02:34:32.528Z,28.73
2019-03-22T02:37:01.226Z,28.10
2019-03-22T02:39:29.880Z,27.22
2019-03-22T02:41:58.418Z,26.60
2019-03-22T02:44:27.860Z,28.20
2019-03-22T02:46:56.551Z,24.63
2019-03-22T02:49:25.160Z,25.35
2019-03-22T02:51:53.420Z,25.70
2019-03-22T02:54:21.734Z,25.00
2019-03-22T02:56:50.188Z,23.30
2019-03-22T02:59:18.710Z,23.87
2019-03-22T03:01:48.475Z,25.17
2019-03-22T03:04:18.094Z,24.23
2019-03-22T03:06:50.446Z,24.52
2019-03-22T03:09:19.131Z,26.12
2019-03-22T03:11:47.494Z,24.98
2019-03-22T03:14:16.100Z,24.85
2019-03-22T03:16:44.406Z,25.95
2019-03-22T03:19:12.654Z,25.90
2019-03-22T03:21:42.587Z,25.68
2019-03-22T03:24:12.069Z,25.17
2019-03-22T03:26:40.694Z,24.98
2019-03-22T03:29:09.068Z,24.40
2019-03-22T03:31:40.080Z,25.25
2019-03-22T03:34:08.276Z,25.68
2019-03-22T03:36:37.136Z,24.27
2019-03-22T03:39:07.464Z,22.27
2019-03-22T03:41:38.049Z,24.07
2019-03-22T03:44:06.764Z,25.50
2019-03-22T03:46:35.965Z,24.05
2019-03-22T03:49:04.862Z,23.07
2019-03-22T03:51:37.901Z,25.52
2019-03-22T03:54:06.665Z,24.65
2019-03-22T03:56:35.219Z,25.65
2019-03-22T03:59:03.617Z,28.45
2019-03-22T04:01:35.372Z,28.55
2019-03-22T04:04:03.796Z,28.15
2019-03-22T04:06:34.189Z,25.72
2019-03-22T04:09:04.602Z,24.60
2019-03-22T04:11:33.100Z,25.43
2019-03-22T04:14:01.870Z,26.25
2019-03-22T04:16:34.226Z,25.70
2019-03-22T04:19:03.457Z,27.07
2019-03-22T04:21:31.982Z,25.25
2019-03-22T04:24:00.579Z,26.55
2019-03-22T04:26:30.193Z,26.23
2019-03-22T04:29:07.249Z,24.85
2019-03-22T04:31:28.776Z,27.75
2019-03-22T04:33:57.323Z,26.68
2019-03-22T04:36:26.050Z,27.75
2019-03-22T04:38:54.331Z,30.02
2019-03-22T04:41:28.652Z,32.85
2019-03-22T04:43:57.223Z,35.33
2019-03-22T04:46:27.543Z,35.60
2019-03-22T04:48:59.556Z,30.20
2019-03-22T04:51:29.378Z,27.00
2019-03-22T04:54:01.765Z,27.60
2019-03-22T04:56:36.651Z,27.82
2019-03-22T04:59:18.522Z,25.72
2019-03-22T05:01:47.428Z,24.05
2019-03-22T05:04:17.484Z,23.75
2019-03-22T05:06:49.028Z,23.75
2019-03-22T05:09:20.131Z,24.07
2019-03-22T05:11:50.492Z,23.80
2019-03-22T05:14:21.678Z,25.00
2019-03-22T05:16:54.036Z,25.25
2019-03-22T05:19:25.567Z,24.95
2019-03-22T05:21:59.197Z,24.85
2019-03-22T05:24:29.952Z,28.02
2019-03-22T05:26:59.364Z,25.80
2019-03-22T05:29:32.201Z,26.10
2019-03-22T05:32:09.151Z,23.75
2019-03-22T05:34:37.563Z,22.77
2019-03-22T05:37:07.602Z,22.90
2019-03-22T05:39:39.417Z,23.22
2019-03-22T05:42:08.908Z,25.00
2019-03-22T05:44:37.560Z,25.48
2019-03-22T05:47:06.249Z,25.80
2019-03-22T05:49:34.608Z,26.02
2019-03-22T05:52:05.882Z,27.42
2019-03-22T05:54:34.089Z,26.75
2019-03-22T05:57:13.449Z,27.07
2019-03-22T05:59:42.508Z,27.32
2019-03-22T06:02:05.984Z,27.13
2019-03-22T06:04:34.188Z,28.80
2019-03-22T06:07:02.576Z,26.33
2019-03-22T06:09:31.061Z,26.68
2019-03-22T06:12:00.999Z,24.75
2019-03-22T06:14:29.577Z,27.40
2019-03-22T06:16:58.048Z,28.25
2019-03-22T06:19:26.311Z,26.75
2019-03-22T06:21:58.127Z,30.40
2019-03-22T06:24:26.398Z,28.35
2019-03-22T06:26:54.695Z,30.57
2019-03-22T06:29:23.327Z,28.92
2019-03-22T06:31:52.067Z,27.30
2019-03-22T06:34:20.677Z,26.52
2019-03-22T06:36:52.295Z,24.43
2019-03-22T06:39:20.962Z,25.60
2019-03-22T06:41:49.282Z,27.17
2019-03-22T06:44:18.408Z,25.25
2019-03-22T06:46:47.874Z,27.85
2019-03-22T06:49:16.685Z,27.27
2019-03-22T06:51:45.577Z,27.55
2019-03-22T06:54:13.842Z,28.65
2019-03-22T06:56:42.183Z,29.15
2019-03-22T06:59:10.821Z,25.55
2019-03-22T07:01:41.243Z,26.87
2019-03-22T07:04:10.300Z,27.00
2019-03-22T07:06:38.547Z,26.65
2019-03-22T07:09:08.517Z,27.13
2019-03-22T07:11:37.329Z,28.83
2019-03-22T07:14:05.878Z,26.60
2019-03-22T07:16:36.685Z,28.05
2019-03-22T07:19:05.715Z,25.25
2019-03-22T07:21:34.563Z,26.93
2019-03-22T07:24:06.805Z,25.47
2019-03-22T07:26:40.313Z,24.70
2019-03-22T07:29:09.021Z,26.80
2019-03-22T07:31:37.273Z,26.03
2019-03-22T07:34:05.975Z,26.97
2019-03-22T07:36:34.227Z,27.53
2019-03-22T07:39:04.466Z,23.90
2019-03-22T07:41:32.951Z,25.47
2019-03-22T07:44:02.559Z,24.33
2019-03-22T07:46:32.868Z,24.80
2019-03-22T07:49:01.389Z,20.53
2019-03-22T07:51:29.653Z,25.10
2019-03-22T07:53:57.892Z,23.10
2019-03-22T07:56:26.995Z,23.00
2019-03-22T07:58:55.749Z,22.57
2019-03-22T08:01:24.378Z,22.30
2019-03-22T08:03:53.014Z,22.80
2019-03-22T08:06:23.412Z,21.63
2019-03-22T08:08:53.618Z,24.20
2019-03-22T08:11:24.832Z,24.47
2019-03-22T08:13:53.510Z,22.87
2019-03-22T08:16:21.798Z,21.27
2019-03-22T08:18:50.156Z,19.70
2019-03-22T08:21:18.554Z,20.23
2019-03-22T08:23:47.196Z,21.47
2019-03-22T08:26:16.146Z,22.23
2019-03-22T08:28:44.798Z,23.60
2019-03-22T08:31:13.070Z,22.63
2019-03-22T08:33:41.318Z,21.53
2019-03-22T08:36:09.798Z,20.23
2019-03-22T08:38:39.203Z,20.37
2019-03-22T08:41:07.525Z,17.83
2019-03-22T08:43:36.194Z,15.33
2019-03-22T08:46:05.768Z,18.63
2019-03-22T08:48:34.324Z,19.17
2019-03-22T08:51:02.660Z,19.13
2019-03-22T08:53:31.257Z,18.70
2019-03-22T08:55:59.507Z,15.90
2019-03-22T08:58:27.822Z,15.63
2019-03-22T09:00:57.976Z,14.60
2019-03-22T09:03:26.867Z,15.67
2019-03-22T09:05:55.243Z,16.20
2019-03-22T09:08:23.463Z,15.50
2019-03-22T09:10:52.099Z,14.93
2019-03-22T09:13:23.256Z,14.50
2019-03-22T09:15:51.539Z,13.53
2019-03-22T09:18:20.281Z,13.20
2019-03-22T09:20:48.652Z,13.10
2019-03-22T09:23:17.150Z,14.10
2019-03-22T09:25:46.217Z,13.30
2019-03-22T09:28:14.958Z,13.73
2019-03-22T09:30:43.587Z,14.13
2019-03-22T09:33:13.373Z,13.40
2019-03-22T09:35:41.972Z,12.57
2019-03-22T09:38:13.118Z,14.37
2019-03-22T09:40:40.803Z,14.33
2019-03-22T09:43:09.041Z,14.07
2019-03-22T09:45:37.556Z,14.47
2019-03-22T09:48:06.289Z,14.57
2019-03-22T09:50:35.150Z,14.40
2019-03-22T09:53:03.934Z,14.83
2019-03-22T09:55:32.487Z,16.10
2019-03-22T09:58:00.919Z,15.40
2019-03-22T10:00:30.796Z,14.77
2019-03-22T10:02:59.610Z,16.87
2019-03-22T10:05:29.016Z,14.90
2019-03-22T10:07:57.789Z,15.40
2019-03-22T10:10:26.281Z,15.80
2019-03-22T10:12:55.490Z,14.70
2019-03-22T10:15:25.340Z,13.90
2019-03-22T10:17:53.586Z,14.87
2019-03-22T10:20:21.935Z,15.47
2019-03-22T10:22:50.767Z,14.57
2019-03-22T10:25:19.205Z,16.00
2019-03-22T10:27:49.424Z,13.40
2019-03-22T10:30:19.935Z,14.90
2019-03-22T10:32:48.216Z,15.40
2019-03-22T10:35:26.076Z,14.40
2019-03-22T10:37:48.420Z,15.20
2019-03-22T10:40:17.404Z,15.23
2019-03-22T10:42:45.750Z,13.67
2019-03-22T10:45:14.146Z,14.90
2019-03-22T10:47:42.713Z,16.60
2019-03-22T10:50:10.963Z,14.67
2019-03-22T10:52:39.243Z,13.90
2019-03-22T10:55:23.318Z,14.03
2019-03-22T10:57:40.206Z,15.30
2019-03-22T11:00:11.381Z,14.47
2019-03-22T11:02:39.776Z,15.70
2019-03-22T11:05:08.219Z,14.33
2019-03-22T11:07:36.454Z,15.60
2019-03-22T11:10:07.634Z,14.57
2019-03-22T11:12:36.141Z,15.80
2019-03-22T11:15:06.240Z,16.33
2019-03-22T11:17:34.897Z,15.03
2019-03-22T11:20:05.344Z,13.70
2019-03-22T11:22:33.583Z,12.97
2019-03-22T11:25:02.077Z,13.27
2019-03-22T11:27:31.161Z,17.43
2019-03-22T11:29:59.715Z,15.37
2019-03-22T11:32:28.812Z,13.67
2019-03-22T11:34:58.499Z,13.37
2019-03-22T11:37:27.009Z,13.00
2019-03-22T11:39:55.285Z,13.57
2019-03-22T11:42:24.237Z,13.60
2019-03-22T11:44:52.724Z,13.50
2019-03-22T11:47:22.177Z,13.13
2019-03-22T11:49:51.844Z,14.20
2019-03-22T11:52:21.185Z,13.33
2019-03-22T11:54:50.764Z,13.27
2019-03-22T11:57:19.088Z,14.07
2019-03-22T11:59:47.328Z,12.27
2019-03-22T12:02:22.388Z,13.23
2019-03-22T12:04:46.297Z,13.10
2019-03-22T12:07:15.040Z,14.40
2019-03-22T12:09:43.722Z,13.73
2019-03-22T12:12:12.046Z,13.50
2019-03-22T12:14:40.911Z,15.27
2019-03-22T12:17:12.121Z,14.37
2019-03-22T12:19:40.513Z,12.47
2019-03-22T12:22:09.208Z,13.17
2019-03-22T12:24:37.828Z,13.67
2019-03-22T12:27:06.447Z,12.60
2019-03-22T12:29:34.838Z,11.60
2019-03-22T12:32:07.284Z,12.87
2019-03-22T12:34:36.152Z,13.40
2019-03-22T12:37:04.618Z,12.90
2019-03-22T12:39:32.922Z,11.30
2019-03-22T12:42:03.565Z,13.37
2019-03-22T12:44:33.843Z,11.87
2019-03-22T12:47:06.314Z,11.53
2019-03-22T12:49:34.957Z,10.37
2019-03-22T12:52:09.841Z,12.43
2019-03-22T12:54:38.478Z,11.67
2019-03-22T12:57:07.814Z,12.63
2019-03-22T12:59:36.745Z,12.47
2019-03-22T13:02:06.332Z,13.60
2019-03-22T13:04:34.895Z,11.37
2019-03-22T13:07:03.591Z,11.20
2019-03-22T13:09:32.134Z,10.70
2019-03-22T13:12:06.314Z,10.17
2019-03-22T13:14:34.894Z,9.30
2019-03-22T13:17:03.192Z,10.73
2019-03-22T13:19:31.418Z,10.70
2019-03-22T13:22:01.455Z,10.90
2019-03-22T13:24:31.141Z,11.17
2019-03-22T13:27:06.483Z,11.17
2019-03-22T13:29:36.808Z,11.40
2019-03-22T13:32:09.212Z,10.90
2019-03-22T13:34:37.862Z,10.37
2019-03-22T13:37:08.198Z,11.33
2019-03-22T13:39:39.744Z,10.90
2019-03-22T13:42:08.559Z,10.93
2019-03-22T13:44:36.811Z,10.33
2019-03-22T13:47:07.076Z,10.10
2019-03-22T13:49:35.662Z,10.07
2019-03-22T13:52:08.690Z,10.40
2019-03-22T13:54:37.242Z,9.60
2019-03-22T13:57:05.504Z,10.23
2019-03-22T13:59:34.098Z,8.73
2019-03-22T14:02:04.719Z,9.50
2019-03-22T14:04:33.923Z,10.33
2019-03-22T14:07:08.556Z,9.37
2019-03-22T14:09:37.077Z,8.47
2019-03-22T14:12:07.010Z,11.23
2019-03-22T14:14:35.635Z,9.10
2019-03-22T14:17:05.229Z,10.17
2019-03-22T14:19:33.494Z,9.17
2019-03-22T14:22:01.827Z,10.17
2019-03-22T14:24:30.378Z,10.10
2019-03-22T14:26:59.761Z,9.30
2019-03-22T14:29:28.246Z,9.87
2019-03-22T14:31:56.846Z,9.20
2019-03-22T14:34:26.149Z,9.40
2019-03-22T14:36:54.509Z,8.70
2019-03-22T14:39:22.790Z,8.20
2019-03-22T14:41:51.239Z,9.60
2019-03-22T14:44:25.473Z,9.30
2019-03-22T14:46:53.938Z,9.77
2019-03-22T14:49:22.598Z,9.43
2019-03-22T14:51:52.134Z,10.47
2019-03-22T14:54:22.948Z,9.83
2019-03-22T14:56:52.366Z,11.47
2019-03-22T14:59:20.661Z,11.03
2019-03-22T15:01:49.270Z,11.17
2019-03-22T15:04:17.627Z,11.07
2019-03-22T15:06:46.863Z,12.40
2019-03-22T15:09:15.340Z,9.77
2019-03-22T15:11:43.698Z,10.80
2019-03-22T15:14:22.659Z,11.50
2019-03-22T15:17:09.246Z,10.93
2019-03-22T15:20:12.398Z,11.25
2019-03-22T15:23:09.106Z,10.75
2019-03-22T15:25:56.269Z,11.40
2019-03-22T15:28:44.258Z,11.05
2019-03-22T15:31:31.017Z,11.95
2019-03-22T15:34:22.816Z,12.25
2019-03-22T15:37:09.189Z,12.33
2019-03-22T15:40:15.415Z,12.18
2019-03-22T15:42:43.673Z,11.75
2019-03-22T15:45:13.659Z,12.35
2019-03-22T15:47:42.383Z,12.50
2019-03-22T15:50:13.203Z,12.00
2019-03-22T15:52:41.786Z,11.05
2019-03-22T15:55:10.884Z,13.80
2019-03-22T15:57:39.477Z,11.20
2019-03-22T16:00:10.448Z,12.93
2019-03-22T16:02:38.921Z,13.75
2019-03-22T16:05:08.660Z,12.30
2019-03-22T16:07:38.466Z,12.43
2019-03-22T16:10:07.664Z,12.95
2019-03-22T16:12:36.048Z,13.05
2019-03-22T16:15:07.059Z,13.53
2019-03-22T16:17:35.270Z,13.10
2019-03-22T16:20:04.621Z,14.43
2019-03-22T16:22:33.265Z,13.60
2019-03-22T16:25:01.988Z,13.13
2019-03-22T16:27:30.720Z,13.38
2019-03-22T16:29:59.532Z,13.93
2019-03-22T16:32:27.924Z,13.40
2019-03-22T16:34:56.485Z,14.40
2019-03-22T16:37:25.115Z,14.95
2019-03-22T16:39:53.866Z,13.95
2019-03-22T16:42:22.648Z,13.95
2019-03-22T16:44:51.304Z,13.65
2019-03-22T16:47:26.639Z,12.60
2019-03-22T16:49:55.200Z,15.50
2019-03-22T16:52:27.845Z,15.50
2019-03-22T16:54:56.671Z,17.15
2019-03-22T16:57:27.361Z,14.50
2019-03-22T16:59:55.983Z,15.58
2019-03-22T17:02:24.840Z,16.25
2019-03-22T17:04:54.677Z,16.15
2019-03-22T17:07:23.288Z,15.53
2019-03-22T17:09:52.006Z,15.78
2019-03-22T17:12:20.482Z,15.40
2019-03-22T17:14:48.899Z,14.75
2019-03-22T17:17:19.531Z,20.05
2019-03-22T17:19:47.977Z,18.15
2019-03-22T17:22:16.674Z,13.95
2019-03-22T17:24:45.372Z,14.87
2019-03-22T17:27:13.775Z,15.00
2019-03-22T17:29:42.275Z,15.95
2019-03-22T17:32:11.155Z,15.15
2019-03-22T17:34:39.632Z,15.85
2019-03-22T17:37:08.356Z,13.65
2019-03-22T17:39:37.469Z,15.98
2019-03-22T17:42:06.171Z,15.75
2019-03-22T17:44:35.664Z,13.93
2019-03-22T17:47:05.224Z,15.10
2019-03-22T17:49:33.890Z,13.85
2019-03-22T17:52:02.552Z,14.45
2019-03-22T17:54:31.189Z,14.43
2019-03-22T17:56:59.986Z,13.90
2019-03-22T17:59:34.390Z,13.72
2019-03-22T18:02:03.092Z,16.15
2019-03-22T18:04:35.100Z,16.52
2019-03-22T18:07:03.868Z,15.60
2019-03-22T18:09:32.501Z,16.35
2019-03-22T18:12:01.044Z,17.70
2019-03-22T18:14:29.829Z,21.70
2019-03-22T18:16:58.403Z,22.13
2019-03-22T18:19:27.063Z,18.80
2019-03-22T18:21:55.804Z,17.17
2019-03-22T18:24:24.305Z,17.60
2019-03-22T18:26:52.743Z,17.60
2019-03-22T18:29:23.047Z,22.13
2019-03-22T18:31:51.748Z,17.20
2019-03-22T18:34:21.208Z,18.62
2019-03-22T18:36:49.952Z,19.52
2019-03-22T18:39:18.604Z,19.57
2019-03-22T18:41:47.404Z,19.12
2019-03-22T18:44:15.942Z,20.17
2019-03-22T18:46:44.336Z,31.33
2019-03-22T18:49:12.944Z,156.57
2019-03-22T18:51:41.716Z,282.80
2019-03-22T18:54:10.264Z,98.25
2019-03-22T18:56:39.011Z,23.18
2019-03-22T18:59:07.625Z,18.73
2019-03-22T19:01:36.365Z,17.98
2019-03-22T19:04:05.032Z,17.65
2019-03-22T19:06:33.768Z,18.48
2019-03-22T19:09:02.127Z,18.90
2019-03-22T19:11:32.386Z,18.12
2019-03-22T19:14:01.045Z,17.37
2019-03-22T19:16:29.758Z,18.65
2019-03-22T19:19:00.387Z,18.55
2019-03-22T19:21:29.212Z,15.93
2019-03-22T19:24:00.919Z,25.45
2019-03-22T19:26:31.150Z,18.32
2019-03-22T19:28:59.699Z,18.62
2019-03-22T19:31:28.383Z,18.07
2019-03-22T19:34:59.638Z,17.77
2019-03-22T19:37:32.211Z,18.23
2019-03-22T19:40:18.262Z,18.30
2019-03-22T19:42:50.767Z,17.42
2019-03-22T19:45:19.421Z,17.70
2019-03-22T19:47:48.584Z,17.50
2019-03-22T19:50:18.077Z,17.67
2019-03-22T19:52:48.525Z,17.45
2019-03-22T19:55:17.034Z,20.92
2019-03-22T19:57:46.755Z,17.42
2019-03-22T20:00:15.585Z,19.85
2019-03-22T20:02:50.178Z,20.08
2019-03-22T20:05:36.682Z,17.62
2019-03-22T20:08:06.291Z,17.92
2019-03-22T20:10:34.983Z,18.85
2019-03-22T20:13:03.837Z,18.23
2019-03-22T20:15:32.390Z,15.75
2019-03-22T20:18:06.293Z,15.60
2019-03-22T20:20:36.219Z,18.02
2019-03-22T20:23:06.310Z,24.95
2019-03-22T20:25:34.712Z,31.10
2019-03-22T20:28:03.184Z,38.30
2019-03-22T20:30:33.113Z,33.13
2019-03-22T20:33:03.144Z,32.67
2019-03-22T20:35:31.683Z,27.65
2019-03-22T20:38:00.348Z,22.00
2019-03-22T20:40:29.130Z,27.58
2019-03-22T20:42:58.014Z,27.90
2019-03-22T20:45:30.275Z,28.50
2019-03-22T20:48:00.875Z,30.05
2019-03-22T20:50:35.818Z,31.50
2019-03-22T20:53:00.217Z,32.48
2019-03-22T20:55:29.052Z,29.92
2019-03-22T20:57:57.792Z,28.98
2019-03-22T21:00:27.510Z,29.30
2019-03-22T21:02:56.193Z,29.15
2019-03-22T21:05:27.214Z,29.60
2019-03-22T21:07:56.472Z,29.72
2019-03-22T21:10:25.722Z,29.72
2019-03-22T21:12:57.488Z,31.17
2019-03-22T21:15:25.723Z,32.85
2019-03-22T21:17:56.302Z,33.80
2019-03-22T21:20:24.661Z,34.80
2019-03-22T21:22:52.932Z,39.78
2019-03-22T21:25:21.557Z,37.30
2019-03-22T21:27:49.903Z,36.88
2019-03-22T21:30:18.500Z,38.58
2019-03-22T21:32:48.088Z,37.40
2019-03-22T21:35:22.492Z,35.80
2019-03-22T21:37:50.008Z,32.20
2019-03-22T21:40:18.552Z,30.43
2019-03-22T21:42:46.799Z,29.20
2019-03-22T21:45:16.828Z,30.43
2019-03-22T21:47:45.198Z,28.45
2019-03-22T21:50:14.093Z,28.30
2019-03-22T21:52:43.753Z,26.62
2019-03-22T21:55:11.981Z,27.80
2019-03-22T21:57:41.479Z,28.55
2019-03-22T22:00:10.682Z,29.45
2019-03-22T22:02:40.082Z,29.50
2019-03-22T22:05:09.817Z,31.97
2019-03-22T22:07:38.274Z,30.00
2019-03-22T22:10:06.705Z,33.75
2019-03-22T22:12:35.313Z,28.47
2019-03-22T22:15:04.443Z,27.90
2019-03-22T22:17:34.338Z,27.85
2019-03-22T22:20:03.097Z,28.50
2019-03-22T22:22:31.736Z,31.77
2019-03-22T22:25:00.333Z,28.90
2019-03-22T22:27:29.787Z,28.67
2019-03-22T22:29:58.568Z,30.05
2019-03-22T22:32:26.824Z,26.55
2019-03-22T22:34:55.475Z,27.32
2019-03-22T22:37:24.076Z,26.50
2019-03-22T22:39:52.392Z,27.60
2019-03-22T22:42:20.657Z,27.73
2019-03-22T22:44:49.046Z,26.40
2019-03-22T22:47:18.545Z,23.10
2019-03-22T22:49:48.327Z,22.07
2019-03-22T22:52:18.059Z,21.48
2019-03-22T22:54:46.551Z,25.40
2019-03-22T22:57:14.811Z,30.08
2019-03-22T22:59:43.060Z,25.75
2019-03-22T23:02:14.381Z,25.55
2019-03-22T23:04:43.709Z,22.05
2019-03-22T23:07:12.106Z,23.07
2019-03-22T23:09:49.315Z,23.32
2019-03-22T23:12:18.090Z,23.00
2019-03-22T23:14:46.683Z,23.45
2019-03-22T23:17:14.986Z,28.45
2019-03-22T23:19:43.237Z,28.10
2019-03-22T23:22:11.530Z,29.27
2019-03-22T23:24:39.781Z,28.45
2019-03-22T23:27:08.220Z,27.22
2019-03-22T23:29:36.795Z,26.75
2019-03-22T23:32:07.503Z,26.12
2019-03-22T23:34:36.126Z,27.15
2019-03-22T23:37:04.487Z,25.62
2019-03-22T23:39:33.120Z,24.52
2019-03-22T23:42:01.497Z,25.72
2019-03-22T23:44:30.164Z,25.00
2019-03-22T23:46:58.757Z,25.80
2019-03-22T23:49:27.086Z,28.10
2019-03-22T23:51:55.306Z,29.55
2019-03-22T23:54:23.654Z,30.25
2019-03-22T23:56:51.881Z,30.30
2019-03-22T23:59:20.637Z,26.93
